createdAt,value
2022-12-03T00:01:14.502Z,102257.72
2022-12-03T00:03:41.220Z,102252.41
2022-12-03T00:06:07.987Z,102248.09
2022-12-03T00:08:34.595Z,102249.91
2022-12-03T00:11:01.311Z,102249.03
2022-12-03T00:13:27.881Z,102249.03
2022-12-03T00:15:54.538Z,102243.06
2022-12-03T00:18:21.157Z,102245.72
2022-12-03T00:20:47.759Z,102245.72
2022-12-03T00:23:14.346Z,102244.88
2022-12-03T00:25:40.943Z,102244.72
2022-12-03T00:28:07.691Z,102241.06
2022-12-03T00:30:34.358Z,102241.78
2022-12-03T00:33:01.042Z,102240.78
2022-12-03T00:35:27.640Z,102242.28
2022-12-03T00:37:54.915Z,102235.00
2022-12-03T00:40:21.530Z,102230.50
2022-12-03T00:42:48.090Z,102244.50
2022-12-03T00:45:14.685Z,102240.00
2022-12-03T00:47:41.282Z,102232.03
2022-12-03T00:50:08.325Z,102238.03
2022-12-03T00:52:34.957Z,102239.69
2022-12-03T00:55:01.533Z,102238.19
2022-12-03T00:57:28.118Z,102235.38
2022-12-03T00:59:54.714Z,102237.19
2022-12-03T01:02:21.503Z,102233.53
2022-12-03T01:04:48.379Z,102243.34
2022-12-03T01:07:15.043Z,102237.19
2022-12-03T01:09:41.593Z,102233.69
2022-12-03T01:12:08.231Z,102234.84
2022-12-03T01:14:34.803Z,102232.88
2022-12-03T01:17:01.542Z,102229.38
2022-12-03T01:19:28.212Z,102233.88
2022-12-03T01:21:55.615Z,102235.38
2022-12-03T01:24:22.576Z,102239.84
2022-12-03T01:26:49.174Z,102235.53
2022-12-03T01:29:15.885Z,102237.91
2022-12-03T01:32:01.228Z,102231.88
2022-12-03T01:34:27.926Z,102232.88
2022-12-03T01:36:54.642Z,102236.34
2022-12-03T01:39:21.269Z,102227.56
2022-12-03T01:41:49.092Z,102223.25
2022-12-03T01:44:26.125Z,102226.72
2022-12-03T01:46:54.997Z,102228.56
2022-12-03T01:49:30.761Z,102226.88
2022-12-03T01:51:57.759Z,102226.88
2022-12-03T01:54:51.035Z,102224.19
2022-12-03T01:57:25.502Z,102224.91
2022-12-03T01:59:53.226Z,102227.41
2022-12-03T02:02:24.126Z,102227.06
2022-12-03T02:04:52.082Z,102227.06
2022-12-03T02:07:27.986Z,102222.31
2022-12-03T02:09:57.312Z,102219.66
2022-12-03T02:12:32.172Z,102221.31
2022-12-03T02:14:59.039Z,102217.00
2022-12-03T02:17:26.087Z,102225.63
2022-12-03T02:19:53.130Z,102216.66
2022-12-03T02:22:35.053Z,102212.19
2022-12-03T02:25:17.628Z,102215.84
2022-12-03T02:27:44.623Z,102214.00
2022-12-03T02:30:12.869Z,102213.84
2022-12-03T02:32:40.139Z,102213.03
2022-12-03T02:35:08.850Z,102221.69
2022-12-03T02:37:36.791Z,102216.50
2022-12-03T02:40:06.851Z,102214.84
2022-12-03T02:42:36.483Z,102219.16
2022-12-03T02:45:10.759Z,102217.50
2022-12-03T02:47:53.059Z,102211.34
2022-12-03T02:50:23.372Z,102215.84
2022-12-03T02:52:52.804Z,102217.66
2022-12-03T02:55:19.688Z,102220.31
2022-12-03T02:57:48.561Z,102216.16
2022-12-03T03:00:16.287Z,102213.34
2022-12-03T03:02:43.627Z,102215.00
2022-12-03T03:05:11.931Z,102213.34
2022-12-03T03:07:39.144Z,102223.13
2022-12-03T03:10:07.377Z,102215.16
2022-12-03T03:12:39.024Z,102214.19
2022-12-03T03:15:07.391Z,102211.69
2022-12-03T03:17:35.320Z,102215.00
2022-12-03T03:20:03.313Z,102215.00
2022-12-03T03:22:41.436Z,102223.97
2022-12-03T03:25:11.122Z,102211.53
2022-12-03T03:27:38.449Z,102214.19
2022-12-03T03:30:05.705Z,102209.69
2022-12-03T03:32:33.017Z,102213.03
2022-12-03T03:34:59.608Z,102208.38
2022-12-03T03:37:26.499Z,102202.22
2022-12-03T03:39:53.104Z,102202.91
2022-12-03T03:42:19.799Z,102201.91
2022-12-03T03:44:48.075Z,102201.78
2022-12-03T03:47:14.989Z,102195.59
2022-12-03T03:49:41.935Z,102191.78
2022-12-03T03:52:11.555Z,102199.78
2022-12-03T03:54:38.649Z,102196.31
2022-12-03T03:57:05.431Z,102202.44
2022-12-03T03:59:32.058Z,102194.47
2022-12-03T04:01:58.694Z,102197.13
2022-12-03T04:04:26.833Z,102191.78
2022-12-03T04:06:53.501Z,102189.97
2022-12-03T04:09:20.129Z,102186.47
2022-12-03T04:12:05.215Z,102188.19
2022-12-03T04:14:31.823Z,102175.84
2022-12-03T04:16:58.450Z,102172.53
2022-12-03T04:19:25.057Z,102176.03
2022-12-03T04:22:10.556Z,102163.69
2022-12-03T04:24:37.131Z,102159.22
2022-12-03T04:27:22.251Z,102175.19
2022-12-03T04:29:48.985Z,102177.84
2022-12-03T04:32:34.370Z,102173.53
2022-12-03T04:35:19.465Z,102169.22
2022-12-03T04:37:46.128Z,102176.34
2022-12-03T04:40:31.500Z,102173.53
2022-12-03T04:42:58.071Z,102173.69
2022-12-03T04:45:24.599Z,102173.69
2022-12-03T04:47:51.215Z,102178.00
2022-12-03T04:50:17.789Z,102172.84
2022-12-03T04:52:44.338Z,102168.22
2022-12-03T04:55:10.990Z,102160.22
2022-12-03T04:57:37.583Z,102159.38
2022-12-03T05:00:05.335Z,102157.41
2022-12-03T05:02:31.981Z,102161.59
2022-12-03T05:04:58.576Z,102149.97
2022-12-03T05:07:25.228Z,102156.94
2022-12-03T05:09:51.922Z,102154.28
2022-12-03T05:12:18.492Z,102154.97
2022-12-03T05:14:45.054Z,102144.34
2022-12-03T05:17:11.653Z,102148.66
2022-12-03T05:19:56.838Z,102148.50
2022-12-03T05:22:23.479Z,102151.00
2022-12-03T05:24:50.065Z,102145.84
2022-12-03T05:27:20.287Z,102144.84
2022-12-03T05:29:50.210Z,102140.38
2022-12-03T05:32:16.792Z,102151.81
2022-12-03T05:34:43.383Z,102151.00
2022-12-03T05:37:10.005Z,102152.66
2022-12-03T05:39:36.830Z,102150.31
2022-12-03T05:42:22.361Z,102138.81
2022-12-03T05:44:48.922Z,102136.34
2022-12-03T05:47:15.501Z,102146.81
2022-12-03T05:49:42.146Z,102137.16
2022-12-03T05:52:08.770Z,102139.97
2022-12-03T05:54:35.361Z,102140.97
2022-12-03T05:57:01.927Z,102136.50
2022-12-03T05:59:28.499Z,102136.50
2022-12-03T06:01:55.376Z,102134.84
2022-12-03T06:04:21.938Z,102136.66
2022-12-03T06:06:48.509Z,102130.50
2022-12-03T06:09:15.050Z,102135.00
2022-12-03T06:11:41.635Z,102135.81
2022-12-03T06:14:08.566Z,102127.84
2022-12-03T06:16:35.204Z,102131.34
2022-12-03T06:19:01.791Z,102134.84
2022-12-03T06:21:28.345Z,102132.84
2022-12-03T06:23:55.002Z,102127.69
2022-12-03T06:26:21.776Z,102136.16
2022-12-03T06:28:49.508Z,102134.34
2022-12-03T06:31:16.157Z,102127.22
2022-12-03T06:33:42.736Z,102139.38
2022-12-03T06:36:09.324Z,102136.72
2022-12-03T06:38:35.907Z,102130.09
2022-12-03T06:41:02.480Z,102143.38
2022-12-03T06:43:30.915Z,102135.25
2022-12-03T06:45:57.490Z,102141.38
2022-12-03T06:48:24.065Z,102143.03
2022-12-03T06:50:50.617Z,102141.22
2022-12-03T06:53:17.163Z,102136.06
2022-12-03T06:55:43.955Z,102137.72
2022-12-03T06:58:10.560Z,102148.34
2022-12-03T07:00:37.168Z,102138.72
2022-12-03T07:03:03.849Z,102135.25
2022-12-03T07:05:30.526Z,102137.06
2022-12-03T07:07:57.302Z,102138.06
2022-12-03T07:10:23.960Z,102141.69
2022-12-03T07:12:50.541Z,102134.72
2022-12-03T07:15:17.289Z,102140.03
2022-12-03T07:17:43.875Z,102141.88
2022-12-03T07:20:11.172Z,102138.38
2022-12-03T07:22:37.753Z,102141.88
2022-12-03T07:25:05.012Z,102139.53
2022-12-03T07:27:31.698Z,102136.72
2022-12-03T07:29:58.300Z,102142.84
2022-12-03T07:32:24.850Z,102138.53
2022-12-03T07:34:51.721Z,102136.72
2022-12-03T07:37:22.887Z,102145.69
2022-12-03T07:39:50.240Z,102150.00
2022-12-03T07:42:16.849Z,102142.84
2022-12-03T07:44:43.399Z,102143.69
2022-12-03T07:47:10.084Z,102142.03
2022-12-03T07:49:36.792Z,102138.53
2022-12-03T07:52:03.371Z,102143.69
2022-12-03T07:54:29.931Z,102145.50
2022-12-03T07:57:01.117Z,102144.53
2022-12-03T07:59:28.646Z,102142.69
2022-12-03T08:01:55.421Z,102138.38
2022-12-03T08:04:22.041Z,102137.22
2022-12-03T08:06:48.622Z,102131.59
2022-12-03T08:09:16.427Z,102134.91
2022-12-03T08:11:45.149Z,102132.97
2022-12-03T08:14:13.640Z,102131.81
2022-12-03T08:16:41.887Z,102128.00
2022-12-03T08:19:12.950Z,102127.16
2022-12-03T08:21:40.092Z,102122.84
2022-12-03T08:24:24.782Z,102124.50
2022-12-03T08:26:51.646Z,102124.34
2022-12-03T08:29:19.945Z,102129.00
2022-12-03T08:31:57.509Z,102121.03
2022-12-03T08:34:27.171Z,102124.66
2022-12-03T08:37:01.879Z,102123.84
2022-12-03T08:39:37.872Z,102123.00
2022-12-03T08:42:22.852Z,102110.81
2022-12-03T08:44:49.433Z,102122.19
2022-12-03T08:47:19.962Z,102116.00
2022-12-03T08:50:22.366Z,102130.16
2022-12-03T08:52:48.940Z,102122.34
2022-12-03T08:55:38.059Z,102130.44
2022-12-03T08:58:39.232Z,102122.47
2022-12-03T09:01:08.869Z,102121.47
2022-12-03T09:03:35.573Z,102126.78
2022-12-03T09:06:02.152Z,102121.47
2022-12-03T09:08:28.786Z,102117.94
2022-12-03T09:10:55.527Z,102113.63
2022-12-03T09:13:22.205Z,102110.81
2022-12-03T09:15:48.779Z,102113.47
2022-12-03T09:18:15.900Z,102106.81
2022-12-03T09:20:42.527Z,102099.16
2022-12-03T09:23:09.086Z,102099.47
2022-12-03T09:25:35.788Z,102097.97
2022-12-03T09:28:02.855Z,102081.34
2022-12-03T09:30:29.418Z,102094.63
2022-12-03T09:32:56.062Z,102090.00
2022-12-03T09:35:23.088Z,102090.81
2022-12-03T09:37:49.660Z,102090.66
2022-12-03T09:40:16.253Z,102082.53
2022-12-03T09:42:42.835Z,102089.19
2022-12-03T09:45:12.254Z,102088.69
2022-12-03T09:47:40.518Z,102088.56
2022-12-03T09:50:07.669Z,102077.78
2022-12-03T09:52:34.649Z,102086.44
2022-12-03T09:55:04.652Z,102084.44
2022-12-03T09:57:31.409Z,102082.63
2022-12-03T09:59:58.139Z,102083.28
2022-12-03T10:02:29.787Z,102076.31
2022-12-03T10:04:57.080Z,102075.47
2022-12-03T10:07:25.161Z,102072.25
2022-12-03T10:09:52.225Z,102077.56
2022-12-03T10:12:23.814Z,102072.75
2022-12-03T10:14:50.521Z,102076.13
2022-12-03T10:17:17.207Z,102073.47
2022-12-03T10:19:44.687Z,102074.31
2022-12-03T10:22:11.238Z,102068.16
2022-12-03T10:24:38.269Z,102067.16
2022-12-03T10:27:29.556Z,102070.66
2022-12-03T10:29:58.310Z,102073.31
2022-12-03T10:32:43.621Z,102064.47
2022-12-03T10:35:11.909Z,102063.47
2022-12-03T10:37:56.656Z,102068.00
2022-12-03T10:40:31.857Z,102061.00
2022-12-03T10:43:14.704Z,102048.69
2022-12-03T10:45:42.746Z,102046.88
2022-12-03T10:48:20.420Z,102046.72
2022-12-03T10:50:52.289Z,102050.38
2022-12-03T10:53:20.509Z,102048.69
2022-12-03T10:55:48.571Z,102047.72
2022-12-03T10:58:20.269Z,102041.69
2022-12-03T11:00:47.130Z,102046.34
2022-12-03T11:03:22.450Z,102051.47
2022-12-03T11:05:50.267Z,102045.34
2022-12-03T11:08:21.659Z,102039.00
2022-12-03T11:11:07.136Z,102039.75
2022-12-03T11:13:33.634Z,102038.56
2022-12-03T11:16:04.866Z,102035.56
2022-12-03T11:18:37.268Z,102032.75
2022-12-03T11:21:06.816Z,102034.25
2022-12-03T11:23:45.575Z,102031.44
2022-12-03T11:26:18.900Z,102029.47
2022-12-03T11:28:46.211Z,102030.13
2022-12-03T11:31:31.450Z,102027.31
2022-12-03T11:34:19.748Z,102020.97
2022-12-03T11:37:11.042Z,102013.84
2022-12-03T11:39:49.573Z,102009.50
2022-12-03T11:42:27.721Z,102014.16
2022-12-03T11:45:06.200Z,102010.66
2022-12-03T11:47:40.698Z,102024.16
2022-12-03T11:50:22.445Z,102018.28
2022-12-03T11:52:55.009Z,102017.66
2022-12-03T11:55:34.730Z,102013.31
2022-12-03T11:58:15.157Z,102014.13
2022-12-03T12:00:51.868Z,102011.47
2022-12-03T12:03:42.885Z,102007.16
2022-12-03T12:06:11.908Z,102014.13
2022-12-03T12:08:41.156Z,102009.97
2022-12-03T12:11:26.347Z,102001.84
2022-12-03T12:14:12.891Z,101999.34
2022-12-03T12:16:50.771Z,101999.34
2022-12-03T12:19:37.465Z,102000.34
2022-12-03T12:22:17.214Z,101998.50
2022-12-03T12:24:46.357Z,101996.19
2022-12-03T12:27:37.737Z,101992.53
2022-12-03T12:30:13.676Z,101998.69
2022-12-03T12:32:47.356Z,101996.84
2022-12-03T12:35:15.980Z,101994.53
2022-12-03T12:38:08.678Z,101993.53
2022-12-03T12:40:36.291Z,101988.19
2022-12-03T12:43:13.497Z,101984.69
2022-12-03T12:45:43.532Z,101983.88
2022-12-03T12:48:10.118Z,101973.25
2022-12-03T12:50:37.761Z,101980.22
2022-12-03T12:53:16.180Z,101980.22
2022-12-03T12:55:42.766Z,101979.06
2022-12-03T12:58:15.977Z,101969.09
2022-12-03T13:00:42.774Z,101969.59
2022-12-03T13:03:11.849Z,101977.25
2022-12-03T13:05:43.659Z,101969.09
2022-12-03T13:08:28.591Z,101971.44
2022-12-03T13:10:57.867Z,101966.13
2022-12-03T13:13:44.712Z,101964.97
2022-12-03T13:16:32.104Z,101955.97
2022-12-03T13:18:59.991Z,101959.31
2022-12-03T13:21:40.512Z,101950.66
2022-12-03T13:24:27.123Z,101954.16
2022-12-03T13:26:53.695Z,101953.47
2022-12-03T13:29:21.011Z,101951.81
2022-12-03T13:31:59.402Z,101949.31
2022-12-03T13:34:33.812Z,101948.66
2022-12-03T13:37:09.173Z,101944.50
2022-12-03T13:39:37.817Z,101947.16
2022-12-03T13:42:38.842Z,101945.66
2022-12-03T13:45:14.920Z,101950.78
2022-12-03T13:47:42.708Z,101945.47
2022-12-03T13:50:23.949Z,101951.66
2022-12-03T13:52:51.658Z,101951.66
2022-12-03T13:55:28.430Z,101946.47
2022-12-03T13:57:55.064Z,101951.66
2022-12-03T14:00:21.878Z,101948.13
2022-12-03T14:02:48.588Z,101948.97
2022-12-03T14:05:15.495Z,101940.50
2022-12-03T14:07:42.631Z,101945.47
2022-12-03T14:10:11.707Z,101942.81
2022-12-03T14:12:38.371Z,101935.03
2022-12-03T14:15:06.276Z,101932.38
2022-12-03T14:17:32.925Z,101932.53
2022-12-03T14:20:01.399Z,101937.84
2022-12-03T14:22:28.419Z,101936.00
2022-12-03T14:24:55.012Z,101930.69
2022-12-03T14:27:21.944Z,101927.06
2022-12-03T14:29:48.482Z,101925.19
2022-12-03T14:32:15.083Z,101929.72
2022-12-03T14:34:41.688Z,101928.72
2022-12-03T14:37:08.255Z,101940.16
2022-12-03T14:39:34.868Z,101932.03
2022-12-03T14:42:13.606Z,101931.84
2022-12-03T14:44:45.441Z,101932.34
2022-12-03T14:47:12.641Z,101926.88
2022-12-03T14:49:39.589Z,101929.38
2022-12-03T14:52:09.927Z,101930.88
2022-12-03T14:54:42.890Z,101929.84
2022-12-03T14:57:11.586Z,101933.53
2022-12-03T14:59:39.038Z,101934.38
2022-12-03T15:02:05.743Z,101939.69
2022-12-03T15:04:32.348Z,101936.19
2022-12-03T15:06:58.942Z,101944.16
2022-12-03T15:09:25.619Z,101945.00
2022-12-03T15:11:52.205Z,101940.84
2022-12-03T15:14:18.733Z,101942.50
2022-12-03T15:16:45.410Z,101944.31
2022-12-03T15:19:12.032Z,101946.19
2022-12-03T15:21:38.559Z,101948.00
2022-12-03T15:24:05.366Z,101943.69
2022-12-03T15:26:32.119Z,101941.00
2022-12-03T15:28:58.763Z,101937.50
2022-12-03T15:31:25.495Z,101942.84
2022-12-03T15:33:52.093Z,101939.34
2022-12-03T15:36:18.674Z,101952.66
2022-12-03T15:38:45.249Z,101950.81
2022-12-03T15:41:21.477Z,101948.16
2022-12-03T15:43:49.004Z,101947.34
2022-12-03T15:46:15.700Z,101947.34
2022-12-03T15:48:42.319Z,101945.50
2022-12-03T15:51:08.922Z,101947.50
2022-12-03T15:53:35.508Z,101944.69
2022-12-03T15:56:02.101Z,101936.84
2022-12-03T15:58:28.749Z,101945.66
2022-12-03T16:00:55.691Z,101949.31
2022-12-03T16:03:22.390Z,101947.66
2022-12-03T16:05:49.049Z,101951.97
2022-12-03T16:08:15.650Z,101948.50
2022-12-03T16:10:42.329Z,101950.16
2022-12-03T16:13:08.897Z,101948.50
2022-12-03T16:15:35.739Z,101956.28
2022-12-03T16:18:02.385Z,101948.50
2022-12-03T16:20:28.975Z,101950.31
2022-12-03T16:22:55.522Z,101950.16
2022-12-03T16:25:22.118Z,101949.31
2022-12-03T16:27:48.866Z,101950.97
2022-12-03T16:30:15.666Z,101948.16
2022-12-03T16:32:42.285Z,101941.84
2022-12-03T16:35:08.951Z,101944.16
2022-12-03T16:37:35.601Z,101950.34
2022-12-03T16:40:02.816Z,101939.69
2022-12-03T16:42:29.463Z,101936.88
2022-12-03T16:45:04.912Z,101937.84
2022-12-03T16:47:34.153Z,101937.69
2022-12-03T16:50:02.017Z,101930.69
2022-12-03T16:52:28.665Z,101939.38
2022-12-03T16:54:55.237Z,101937.53
2022-12-03T16:57:21.851Z,101933.19
2022-12-03T16:59:48.446Z,101940.34
2022-12-03T17:02:15.148Z,101931.56
2022-12-03T17:04:41.753Z,101937.69
2022-12-03T17:07:08.332Z,101927.19
2022-12-03T17:09:34.909Z,101930.69
2022-12-03T17:12:01.474Z,101926.38
2022-12-03T17:14:33.034Z,101934.38
2022-12-03T17:17:00.114Z,101929.84
2022-12-03T17:19:26.735Z,101930.06
2022-12-03T17:21:54.206Z,101931.72
2022-12-03T17:24:21.460Z,101931.72
2022-12-03T17:26:48.112Z,101935.19
2022-12-03T17:29:14.646Z,101931.03
2022-12-03T17:31:42.467Z,101938.03
2022-12-03T17:34:09.468Z,101930.88
2022-12-03T17:36:36.036Z,101926.56
2022-12-03T17:39:02.751Z,101932.72
2022-12-03T17:41:29.386Z,101929.06
2022-12-03T17:43:55.930Z,101923.72
2022-12-03T17:46:22.797Z,101925.53
2022-12-03T17:48:49.609Z,101923.72
2022-12-03T17:51:16.246Z,101924.72
2022-12-03T17:53:42.801Z,101929.06
2022-12-03T17:56:09.638Z,101929.06
2022-12-03T17:58:36.212Z,101925.53
2022-12-03T18:01:03.448Z,101918.56
2022-12-03T18:03:30.838Z,101916.91
2022-12-03T18:05:57.445Z,101921.22
2022-12-03T18:08:24.068Z,101920.91
2022-12-03T18:10:50.674Z,101912.94
2022-12-03T18:13:17.316Z,101919.91
2022-12-03T18:15:43.976Z,101918.91
2022-12-03T18:18:10.715Z,101917.88
2022-12-03T18:20:37.644Z,101924.91
2022-12-03T18:23:04.858Z,101914.06
2022-12-03T18:25:31.500Z,101925.38
2022-12-03T18:27:58.226Z,101912.09
2022-12-03T18:30:24.934Z,101915.59
2022-12-03T18:32:51.499Z,101909.25
2022-12-03T18:35:18.187Z,101911.06
2022-12-03T18:37:44.884Z,101915.41
2022-12-03T18:40:20.165Z,101915.41
2022-12-03T18:42:47.068Z,101914.59
2022-12-03T18:45:14.942Z,101914.59
2022-12-03T18:47:41.767Z,101912.94
2022-12-03T18:50:09.647Z,101905.75
2022-12-03T18:52:36.255Z,101907.59
2022-12-03T18:55:03.027Z,101908.41
2022-12-03T18:57:29.593Z,101911.06
2022-12-03T18:59:56.378Z,101907.78
2022-12-03T19:05:10.029Z,101912.09
2022-12-03T19:07:36.825Z,101909.59
2022-12-03T19:10:04.035Z,101898.94
2022-12-03T19:12:31.192Z,101897.94
2022-12-03T19:14:57.811Z,101906.75
2022-12-03T19:17:24.444Z,101909.44
2022-12-03T19:19:51.122Z,101915.59
2022-12-03T19:22:17.740Z,101916.56
2022-12-03T19:24:44.307Z,101923.56
2022-12-03T19:27:10.952Z,101921.06
2022-12-03T19:29:37.513Z,101918.25
2022-12-03T19:32:04.199Z,101912.09
2022-12-03T19:34:30.857Z,101910.44
2022-12-03T19:36:57.402Z,101917.41
2022-12-03T19:39:24.217Z,101910.44
2022-12-03T19:41:50.910Z,101922.03
2022-12-03T19:44:18.517Z,101917.72
2022-12-03T19:46:45.654Z,101923.91
2022-12-03T19:49:12.353Z,101923.91
2022-12-03T19:51:38.928Z,101922.88
2022-12-03T19:54:07.388Z,101921.06
2022-12-03T19:56:34.480Z,101919.06
2022-12-03T19:59:01.055Z,101918.75
2022-12-03T20:01:29.954Z,101918.56
2022-12-03T20:03:57.961Z,101918.41
2022-12-03T20:06:26.795Z,101921.72
2022-12-03T20:08:58.690Z,101921.56
2022-12-03T20:11:28.764Z,101926.72
2022-12-03T20:13:57.131Z,101923.06
2022-12-03T20:16:24.607Z,101921.41
2022-12-03T20:18:51.756Z,101919.56
2022-12-03T20:21:19.376Z,101919.72
2022-12-03T20:23:46.447Z,101924.88
2022-12-03T20:26:18.584Z,101916.06
2022-12-03T20:28:46.070Z,101920.56
2022-12-03T20:31:15.450Z,101914.22
2022-12-03T20:33:48.116Z,101916.88
2022-12-03T20:36:16.268Z,101913.41
2022-12-03T20:38:43.346Z,101916.06
2022-12-03T20:41:15.148Z,101912.56
2022-12-03T20:43:41.841Z,101909.91
2022-12-03T20:46:10.960Z,101908.09
2022-12-03T20:48:37.758Z,101912.41
2022-12-03T20:51:15.419Z,101920.22
2022-12-03T20:53:42.455Z,101913.25
2022-12-03T20:56:09.718Z,101912.25
2022-12-03T20:58:36.635Z,101907.94
2022-12-03T21:01:15.438Z,101907.09
2022-12-03T21:03:42.727Z,101914.06
2022-12-03T21:06:10.300Z,101906.25
2022-12-03T21:08:41.547Z,101909.75
2022-12-03T21:11:14.155Z,101897.28
2022-12-03T21:13:44.023Z,101905.44
2022-12-03T21:16:16.053Z,101900.28
2022-12-03T21:18:43.027Z,101894.78
2022-12-03T21:21:11.846Z,101896.78
2022-12-03T21:23:38.426Z,101894.94
2022-12-03T21:26:13.526Z,101894.09
2022-12-03T21:28:41.149Z,101900.44
2022-12-03T21:31:10.972Z,101899.44
2022-12-03T21:33:38.319Z,101894.28
2022-12-03T21:36:05.876Z,101894.94
2022-12-03T21:38:32.799Z,101891.44
2022-12-03T21:41:00.045Z,101894.78
2022-12-03T21:43:27.139Z,101891.75
2022-12-03T21:45:53.987Z,101891.59
2022-12-03T21:48:21.176Z,101894.94
2022-12-03T21:51:01.770Z,101884.13
2022-12-03T21:53:29.027Z,101892.78
2022-12-03T21:55:55.853Z,101887.44
2022-12-03T21:58:22.546Z,101892.44
2022-12-03T22:00:49.165Z,101897.75
2022-12-03T22:03:15.823Z,101902.09
2022-12-03T22:05:42.582Z,101898.41
2022-12-03T22:08:09.440Z,101895.91
2022-12-03T22:10:36.470Z,101903.75
2022-12-03T22:13:03.054Z,101896.59
2022-12-03T22:15:29.603Z,101894.09
2022-12-03T22:17:56.143Z,101893.09
2022-12-03T22:20:22.680Z,101892.94
2022-12-03T22:22:49.208Z,101888.44
2022-12-03T22:25:15.858Z,101885.78
2022-12-03T22:27:42.459Z,101875.13
2022-12-03T22:30:09.250Z,101868.13
2022-12-03T22:32:35.911Z,101871.47
2022-12-03T22:35:02.604Z,101866.31
2022-12-03T22:37:29.186Z,101869.13
2022-12-03T22:39:55.967Z,101866.47
2022-12-03T22:42:22.746Z,101866.47
2022-12-03T22:44:49.449Z,101861.16
2022-12-03T22:47:16.061Z,101866.63
2022-12-03T22:49:42.654Z,101866.81
2022-12-03T22:52:09.266Z,101860.81
2022-12-03T22:54:35.844Z,101858.16
2022-12-03T22:57:02.383Z,101858.16
2022-12-03T22:59:28.967Z,101853.00
2022-12-03T23:01:55.566Z,101851.19
2022-12-03T23:04:22.183Z,101856.50
2022-12-03T23:06:48.843Z,101849.53
2022-12-03T23:09:15.443Z,101851.34
2022-12-03T23:11:44.253Z,101853.00
2022-12-03T23:14:11.583Z,101842.53
2022-12-03T23:16:38.937Z,101847.84
2022-12-03T23:19:05.594Z,101847.84
2022-12-03T23:21:34.119Z,101848.84
2022-12-03T23:24:02.443Z,101840.88
2022-12-03T23:26:29.142Z,101845.19
2022-12-03T23:28:56.296Z,101841.34
2022-12-03T23:31:25.427Z,101839.38
2022-12-03T23:33:52.635Z,101839.00
2022-12-03T23:36:19.686Z,101845.84
2022-12-03T23:38:46.349Z,101843.84
2022-12-03T23:41:15.149Z,101837.50
2022-12-03T23:43:42.262Z,101836.50
2022-12-03T23:46:17.712Z,101838.19
2022-12-03T23:48:45.440Z,101832.69
2022-12-03T23:51:14.162Z,101834.34
2022-12-03T23:53:41.161Z,101831.69
2022-12-03T23:56:10.144Z,101837.00
2022-12-03T23:58:36.698Z,101829.03
